sensor_id;sensor_type;location;lat;lon;timestamp;P1;durP1;ratioP1;P2;durP2;ratioP2
177;SDS011;77;48.792;9.032;2023-07-13T00:00:12;5.47;;;2.43;;
177;SDS011;77;48.792;9.032;2023-07-13T00:02:38;5.87;;;2.37;;
177;SDS011;77;48.792;9.032;2023-07-13T00:05:04;7.67;;;2.50;;
177;SDS011;77;48.792;9.032;2023-07-13T00:07:30;6.83;;;2.50;;
177;SDS011;77;48.792;9.032;2023-07-13T00:09:55;5.90;;;2.50;;
177;SDS011;77;48.792;9.032;2023-07-13T00:12:22;5.40;;;2.50;;
177;SDS011;77;48.792;9.032;2023-07-13T00:14:47;6.90;;;2.20;;
177;SDS011;77;48.792;9.032;2023-07-13T00:17:12;7.93;;;2.30;;
177;SDS011;77;48.792;9.032;2023-07-13T00:19:39;9.17;;;2.80;;
177;SDS011;77;48.792;9.032;2023-07-13T00:22:04;7.23;;;2.53;;
177;SDS011;77;48.792;9.032;2023-07-13T00:24:29;7.33;;;2.53;;
177;SDS011;77;48.792;9.032;2023-07-13T00:26:54;6.97;;;2.50;;
177;SDS011;77;48.792;9.032;2023-07-13T00:29:20;5.73;;;2.27;;
177;SDS011;77;48.792;9.032;2023-07-13T00:31:45;6.27;;;2.50;;
177;SDS011;77;48.792;9.032;2023-07-13T00:34:10;6.10;;;2.47;;
177;SDS011;77;48.792;9.032;2023-07-13T00:36:37;8.90;;;2.40;;
177;SDS011;77;48.792;9.032;2023-07-13T00:39:02;5.77;;;2.43;;
177;SDS011;77;48.792;9.032;2023-07-13T00:41:27;6.47;;;2.50;;
177;SDS011;77;48.792;9.032;2023-07-13T00:43:52;7.43;;;2.47;;
177;SDS011;77;48.792;9.032;2023-07-13T00:46:25;9.43;;;2.77;;
177;SDS011;77;48.792;9.032;2023-07-13T00:48:51;7.80;;;2.60;;
177;SDS011;77;48.792;9.032;2023-07-13T00:51:17;6.03;;;2.23;;
177;SDS011;77;48.792;9.032;2023-07-13T00:53:45;6.70;;;2.47;;
177;SDS011;77;48.792;9.032;2023-07-13T00:56:10;8.97;;;2.70;;
177;SDS011;77;48.792;9.032;2023-07-13T00:58:35;6.97;;;2.50;;
177;SDS011;77;48.792;9.032;2023-07-13T01:01:00;6.00;;;2.40;;
177;SDS011;77;48.792;9.032;2023-07-13T01:03:26;8.73;;;2.40;;
177;SDS011;77;48.792;9.032;2023-07-13T01:05:51;5.93;;;2.77;;
177;SDS011;77;48.792;9.032;2023-07-13T01:08:16;7.27;;;2.73;;
177;SDS011;77;48.792;9.032;2023-07-13T01:10:51;7.00;;;2.53;;
177;SDS011;77;48.792;9.032;2023-07-13T01:13:16;6.30;;;2.37;;
177;SDS011;77;48.792;9.032;2023-07-13T01:15:42;6.27;;;2.70;;
177;SDS011;77;48.792;9.032;2023-07-13T01:18:08;8.20;;;3.00;;
177;SDS011;77;48.792;9.032;2023-07-13T01:20:34;8.30;;;2.47;;
177;SDS011;77;48.792;9.032;2023-07-13T01:23:01;8.13;;;2.90;;
177;SDS011;77;48.792;9.032;2023-07-13T01:25:26;7.93;;;2.60;;
177;SDS011;77;48.792;9.032;2023-07-13T01:27:52;7.20;;;2.50;;
177;SDS011;77;48.792;9.032;2023-07-13T01:30:17;7.83;;;2.83;;
177;SDS011;77;48.792;9.032;2023-07-13T01:32:42;8.00;;;2.47;;
177;SDS011;77;48.792;9.032;2023-07-13T01:35:07;6.00;;;2.40;;
177;SDS011;77;48.792;9.032;2023-07-13T01:37:33;8.13;;;2.87;;
177;SDS011;77;48.792;9.032;2023-07-13T01:39:59;7.00;;;2.40;;
177;SDS011;77;48.792;9.032;2023-07-13T01:42:24;7.00;;;2.63;;
177;SDS011;77;48.792;9.032;2023-07-13T01:44:49;8.20;;;2.83;;
177;SDS011;77;48.792;9.032;2023-07-13T01:47:15;7.07;;;2.57;;
177;SDS011;77;48.792;9.032;2023-07-13T01:49:40;12.30;;;2.60;;
177;SDS011;77;48.792;9.032;2023-07-13T01:52:05;9.50;;;3.20;;
177;SDS011;77;48.792;9.032;2023-07-13T01:54:30;5.63;;;2.60;;
177;SDS011;77;48.792;9.032;2023-07-13T01:56:57;7.70;;;2.43;;
177;SDS011;77;48.792;9.032;2023-07-13T01:59:22;8.73;;;2.50;;
177;SDS011;77;48.792;9.032;2023-07-13T02:01:47;6.27;;;2.60;;
177;SDS011;77;48.792;9.032;2023-07-13T02:04:13;8.67;;;2.77;;
177;SDS011;77;48.792;9.032;2023-07-13T02:06:38;8.33;;;3.10;;
177;SDS011;77;48.792;9.032;2023-07-13T02:09:03;8.17;;;2.70;;
177;SDS011;77;48.792;9.032;2023-07-13T02:11:29;9.10;;;2.50;;
177;SDS011;77;48.792;9.032;2023-07-13T02:13:55;7.00;;;2.73;;
177;SDS011;77;48.792;9.032;2023-07-13T02:16:20;9.17;;;2.67;;
177;SDS011;77;48.792;9.032;2023-07-13T02:18:45;6.23;;;2.40;;
177;SDS011;77;48.792;9.032;2023-07-13T02:21:10;6.50;;;2.70;;
177;SDS011;77;48.792;9.032;2023-07-13T02:23:36;8.30;;;2.50;;
177;SDS011;77;48.792;9.032;2023-07-13T02:26:01;7.57;;;2.70;;
177;SDS011;77;48.792;9.032;2023-07-13T02:28:27;8.37;;;2.80;;
177;SDS011;77;48.792;9.032;2023-07-13T02:30:53;6.43;;;2.57;;
177;SDS011;77;48.792;9.032;2023-07-13T02:33:19;9.30;;;2.53;;
177;SDS011;77;48.792;9.032;2023-07-13T02:35:44;5.70;;;2.50;;
177;SDS011;77;48.792;9.032;2023-07-13T02:38:09;11.53;;;2.83;;
177;SDS011;77;48.792;9.032;2023-07-13T02:40:34;7.70;;;2.90;;
177;SDS011;77;48.792;9.032;2023-07-13T02:42:59;11.73;;;2.80;;
177;SDS011;77;48.792;9.032;2023-07-13T02:45:24;6.80;;;2.50;;
177;SDS011;77;48.792;9.032;2023-07-13T02:47:51;7.80;;;2.80;;
177;SDS011;77;48.792;9.032;2023-07-13T02:50:16;8.20;;;2.90;;
177;SDS011;77;48.792;9.032;2023-07-13T02:52:41;6.43;;;3.03;;
177;SDS011;77;48.792;9.032;2023-07-13T02:55:06;6.30;;;2.73;;
177;SDS011;77;48.792;9.032;2023-07-13T02:57:32;9.47;;;2.90;;
177;SDS011;77;48.792;9.032;2023-07-13T02:59:57;6.57;;;2.70;;
177;SDS011;77;48.792;9.032;2023-07-13T03:02:22;6.03;;;2.73;;
177;SDS011;77;48.792;9.032;2023-07-13T03:04:49;7.77;;;2.77;;
177;SDS011;77;48.792;9.032;2023-07-13T03:07:14;7.40;;;2.80;;
177;SDS011;77;48.792;9.032;2023-07-13T03:09:39;8.13;;;2.70;;
177;SDS011;77;48.792;9.032;2023-07-13T03:12:04;7.33;;;2.83;;
177;SDS011;77;48.792;9.032;2023-07-13T03:14:30;8.33;;;2.97;;
177;SDS011;77;48.792;9.032;2023-07-13T03:16:55;10.50;;;2.87;;
177;SDS011;77;48.792;9.032;2023-07-13T03:19:20;6.67;;;2.87;;
177;SDS011;77;48.792;9.032;2023-07-13T03:21:47;6.37;;;2.70;;
177;SDS011;77;48.792;9.032;2023-07-13T03:24:12;6.30;;;3.00;;
177;SDS011;77;48.792;9.032;2023-07-13T03:26:37;6.73;;;3.00;;
177;SDS011;77;48.792;9.032;2023-07-13T03:29:02;7.60;;;2.90;;
177;SDS011;77;48.792;9.032;2023-07-13T03:31:28;6.23;;;2.70;;
177;SDS011;77;48.792;9.032;2023-07-13T03:33:54;6.50;;;3.03;;
177;SDS011;77;48.792;9.032;2023-07-13T03:36:21;7.97;;;3.00;;
177;SDS011;77;48.792;9.032;2023-07-13T03:38:48;6.40;;;3.10;;
177;SDS011;77;48.792;9.032;2023-07-13T03:41:14;7.90;;;3.10;;
177;SDS011;77;48.792;9.032;2023-07-13T03:43:39;9.17;;;2.80;;
177;SDS011;77;48.792;9.032;2023-07-13T03:46:04;7.50;;;2.80;;
177;SDS011;77;48.792;9.032;2023-07-13T03:48:30;6.27;;;2.60;;
177;SDS011;77;48.792;9.032;2023-07-13T03:50:55;10.07;;;3.10;;
177;SDS011;77;48.792;9.032;2023-07-13T03:53:20;6.20;;;2.80;;
177;SDS011;77;48.792;9.032;2023-07-13T03:55:46;5.87;;;2.90;;
177;SDS011;77;48.792;9.032;2023-07-13T03:58:25;8.03;;;3.20;;
177;SDS011;77;48.792;9.032;2023-07-13T04:00:51;8.50;;;2.97;;
177;SDS011;77;48.792;9.032;2023-07-13T04:03:16;6.33;;;2.70;;
177;SDS011;77;48.792;9.032;2023-07-13T04:05:41;6.00;;;2.80;;
177;SDS011;77;48.792;9.032;2023-07-13T04:08:06;7.20;;;2.80;;
177;SDS011;77;48.792;9.032;2023-07-13T04:10:31;8.57;;;3.33;;
177;SDS011;77;48.792;9.032;2023-07-13T04:12:58;6.97;;;2.57;;
177;SDS011;77;48.792;9.032;2023-07-13T04:15:23;6.80;;;2.83;;
177;SDS011;77;48.792;9.032;2023-07-13T04:17:48;6.90;;;2.77;;
177;SDS011;77;48.792;9.032;2023-07-13T04:20:13;9.03;;;2.60;;
177;SDS011;77;48.792;9.032;2023-07-13T04:22:39;8.70;;;3.03;;
177;SDS011;77;48.792;9.032;2023-07-13T04:25:04;6.37;;;2.90;;
177;SDS011;77;48.792;9.032;2023-07-13T04:27:29;6.50;;;2.50;;
177;SDS011;77;48.792;9.032;2023-07-13T04:29:56;7.70;;;3.00;;
177;SDS011;77;48.792;9.032;2023-07-13T04:32:21;8.43;;;2.80;;
177;SDS011;77;48.792;9.032;2023-07-13T04:34:46;8.70;;;2.67;;
177;SDS011;77;48.792;9.032;2023-07-13T04:37:11;6.70;;;3.00;;
177;SDS011;77;48.792;9.032;2023-07-13T04:39:36;8.70;;;2.80;;
177;SDS011;77;48.792;9.032;2023-07-13T04:42:02;6.07;;;2.90;;
177;SDS011;77;48.792;9.032;2023-07-13T04:44:27;7.57;;;2.90;;
177;SDS011;77;48.792;9.032;2023-07-13T04:46:53;7.60;;;3.07;;
177;SDS011;77;48.792;9.032;2023-07-13T04:49:19;10.70;;;3.00;;
177;SDS011;77;48.792;9.032;2023-07-13T04:51:44;10.43;;;3.10;;
177;SDS011;77;48.792;9.032;2023-07-13T04:54:09;9.43;;;2.63;;
177;SDS011;77;48.792;9.032;2023-07-13T04:56:34;6.22;;;2.92;;
177;SDS011;77;48.792;9.032;2023-07-13T04:58:59;8.60;;;3.00;;
177;SDS011;77;48.792;9.032;2023-07-13T05:01:24;5.80;;;2.90;;
177;SDS011;77;48.792;9.032;2023-07-13T05:03:51;6.63;;;3.00;;
177;SDS011;77;48.792;9.032;2023-07-13T05:06:16;7.10;;;3.00;;
177;SDS011;77;48.792;9.032;2023-07-13T05:08:41;9.90;;;3.00;;
177;SDS011;77;48.792;9.032;2023-07-13T05:11:06;11.00;;;3.00;;
177;SDS011;77;48.792;9.032;2023-07-13T05:13:32;7.43;;;3.47;;
177;SDS011;77;48.792;9.032;2023-07-13T05:15:58;6.90;;;2.90;;
177;SDS011;77;48.792;9.032;2023-07-13T05:18:23;7.93;;;3.20;;
177;SDS011;77;48.792;9.032;2023-07-13T05:20:56;6.40;;;3.30;;
177;SDS011;77;48.792;9.032;2023-07-13T05:23:21;8.33;;;3.10;;
177;SDS011;77;48.792;9.032;2023-07-13T05:25:46;7.50;;;3.00;;
177;SDS011;77;48.792;9.032;2023-07-13T05:28:11;6.47;;;3.03;;
177;SDS011;77;48.792;9.032;2023-07-13T05:30:36;9.93;;;2.90;;
177;SDS011;77;48.792;9.032;2023-07-13T05:33:01;6.03;;;3.10;;
177;SDS011;77;48.792;9.032;2023-07-13T05:35:27;9.10;;;3.17;;
177;SDS011;77;48.792;9.032;2023-07-13T05:37:53;7.20;;;3.20;;
177;SDS011;77;48.792;9.032;2023-07-13T05:40:18;6.40;;;2.80;;
177;SDS011;77;48.792;9.032;2023-07-13T05:42:43;7.17;;;3.20;;
177;SDS011;77;48.792;9.032;2023-07-13T05:45:09;8.33;;;3.10;;
177;SDS011;77;48.792;9.032;2023-07-13T05:47:34;7.73;;;3.23;;
177;SDS011;77;48.792;9.032;2023-07-13T05:49:59;7.13;;;3.43;;
177;SDS011;77;48.792;9.032;2023-07-13T05:52:24;6.57;;;3.33;;
177;SDS011;77;48.792;9.032;2023-07-13T05:54:51;7.00;;;3.40;;
177;SDS011;77;48.792;9.032;2023-07-13T05:57:16;12.33;;;3.80;;
177;SDS011;77;48.792;9.032;2023-07-13T05:59:41;9.40;;;3.30;;
177;SDS011;77;48.792;9.032;2023-07-13T06:02:07;7.43;;;3.00;;
177;SDS011;77;48.792;9.032;2023-07-13T06:04:33;10.67;;;3.43;;
177;SDS011;77;48.792;9.032;2023-07-13T06:06:58;7.67;;;3.20;;
177;SDS011;77;48.792;9.032;2023-07-13T06:09:23;10.43;;;3.10;;
177;SDS011;77;48.792;9.032;2023-07-13T06:11:50;7.17;;;3.10;;
177;SDS011;77;48.792;9.032;2023-07-13T06:14:15;11.83;;;3.43;;
177;SDS011;77;48.792;9.032;2023-07-13T06:16:40;11.40;;;3.47;;
177;SDS011;77;48.792;9.032;2023-07-13T06:19:05;11.60;;;3.30;;
177;SDS011;77;48.792;9.032;2023-07-13T06:21:30;11.23;;;3.30;;
177;SDS011;77;48.792;9.032;2023-07-13T06:23:56;6.73;;;3.10;;
177;SDS011;77;48.792;9.032;2023-07-13T06:26:21;9.93;;;3.00;;
177;SDS011;77;48.792;9.032;2023-07-13T06:28:47;14.13;;;3.50;;
177;SDS011;77;48.792;9.032;2023-07-13T06:31:13;11.83;;;3.67;;
177;SDS011;77;48.792;9.032;2023-07-13T06:33:38;8.50;;;3.40;;
177;SDS011;77;48.792;9.032;2023-07-13T06:36:04;7.97;;;3.20;;
177;SDS011;77;48.792;9.032;2023-07-13T06:38:30;8.83;;;3.60;;
177;SDS011;77;48.792;9.032;2023-07-13T06:40:55;14.37;;;3.77;;
177;SDS011;77;48.792;9.032;2023-07-13T06:43:20;9.47;;;3.30;;
177;SDS011;77;48.792;9.032;2023-07-13T06:45:47;10.83;;;3.60;;
177;SDS011;77;48.792;9.032;2023-07-13T06:48:13;9.53;;;3.53;;
177;SDS011;77;48.792;9.032;2023-07-13T06:50:39;6.90;;;3.40;;
177;SDS011;77;48.792;9.032;2023-07-13T06:53:04;8.97;;;3.43;;
177;SDS011;77;48.792;9.032;2023-07-13T06:55:29;12.27;;;3.47;;
177;SDS011;77;48.792;9.032;2023-07-13T06:57:54;8.33;;;3.40;;
177;SDS011;77;48.792;9.032;2023-07-13T07:00:19;10.43;;;3.27;;
177;SDS011;77;48.792;9.032;2023-07-13T07:02:46;7.50;;;3.30;;
177;SDS011;77;48.792;9.032;2023-07-13T07:05:11;6.87;;;2.90;;
177;SDS011;77;48.792;9.032;2023-07-13T07:07:36;7.20;;;3.07;;
177;SDS011;77;48.792;9.032;2023-07-13T07:10:02;7.73;;;2.93;;
177;SDS011;77;48.792;9.032;2023-07-13T07:12:27;9.30;;;3.20;;
177;SDS011;77;48.792;9.032;2023-07-13T07:14:52;10.63;;;3.50;;
177;SDS011;77;48.792;9.032;2023-07-13T07:17:17;8.20;;;3.10;;
177;SDS011;77;48.792;9.032;2023-07-13T07:19:44;7.53;;;2.90;;
177;SDS011;77;48.792;9.032;2023-07-13T07:22:09;6.60;;;2.80;;
177;SDS011;77;48.792;9.032;2023-07-13T07:24:34;9.37;;;2.83;;
177;SDS011;77;48.792;9.032;2023-07-13T07:27:00;8.80;;;3.03;;
177;SDS011;77;48.792;9.032;2023-07-13T07:29:25;11.13;;;3.33;;
177;SDS011;77;48.792;9.032;2023-07-13T07:31:50;6.63;;;2.90;;
177;SDS011;77;48.792;9.032;2023-07-13T07:34:15;10.10;;;2.80;;
177;SDS011;77;48.792;9.032;2023-07-13T07:36:42;6.80;;;2.60;;
177;SDS011;77;48.792;9.032;2023-07-13T07:39:07;9.90;;;2.80;;
177;SDS011;77;48.792;9.032;2023-07-13T07:41:32;10.90;;;2.97;;
177;SDS011;77;48.792;9.032;2023-07-13T07:43:57;10.20;;;2.93;;
177;SDS011;77;48.792;9.032;2023-07-13T07:46:23;9.03;;;2.80;;
177;SDS011;77;48.792;9.032;2023-07-13T07:48:48;8.60;;;2.90;;
177;SDS011;77;48.792;9.032;2023-07-13T07:51:13;14.73;;;3.03;;
177;SDS011;77;48.792;9.032;2023-07-13T07:53:40;10.07;;;3.30;;
177;SDS011;77;48.792;9.032;2023-07-13T07:56:05;9.87;;;2.93;;
177;SDS011;77;48.792;9.032;2023-07-13T07:58:30;7.07;;;2.83;;
177;SDS011;77;48.792;9.032;2023-07-13T08:01:01;8.20;;;2.73;;
177;SDS011;77;48.792;9.032;2023-07-13T08:03:26;6.50;;;2.40;;
177;SDS011;77;48.792;9.032;2023-07-13T08:05:52;8.00;;;2.73;;
177;SDS011;77;48.792;9.032;2023-07-13T08:08:17;5.83;;;2.63;;
177;SDS011;77;48.792;9.032;2023-07-13T08:10:44;6.87;;;2.60;;
177;SDS011;77;48.792;9.032;2023-07-13T08:13:09;7.10;;;2.90;;
177;SDS011;77;48.792;9.032;2023-07-13T08:15:34;6.40;;;2.70;;
177;SDS011;77;48.792;9.032;2023-07-13T08:17:59;11.50;;;3.07;;
177;SDS011;77;48.792;9.032;2023-07-13T08:20:25;6.27;;;2.43;;
177;SDS011;77;48.792;9.032;2023-07-13T08:22:50;6.30;;;2.60;;
177;SDS011;77;48.792;9.032;2023-07-13T08:25:15;6.47;;;2.70;;
177;SDS011;77;48.792;9.032;2023-07-13T08:27:42;10.07;;;2.77;;
177;SDS011;77;48.792;9.032;2023-07-13T08:30:07;10.60;;;3.13;;
177;SDS011;77;48.792;9.032;2023-07-13T08:32:32;7.97;;;2.77;;
177;SDS011;77;48.792;9.032;2023-07-13T08:34:58;7.10;;;2.83;;
177;SDS011;77;48.792;9.032;2023-07-13T08:37:23;6.20;;;2.50;;
177;SDS011;77;48.792;9.032;2023-07-13T08:39:48;9.43;;;2.73;;
177;SDS011;77;48.792;9.032;2023-07-13T08:42:14;6.80;;;2.77;;
177;SDS011;77;48.792;9.032;2023-07-13T08:44:46;6.60;;;2.60;;
177;SDS011;77;48.792;9.032;2023-07-13T08:47:15;6.37;;;2.67;;
177;SDS011;77;48.792;9.032;2023-07-13T08:49:41;7.03;;;2.73;;
177;SDS011;77;48.792;9.032;2023-07-13T08:52:08;8.17;;;2.90;;
177;SDS011;77;48.792;9.032;2023-07-13T08:54:35;7.90;;;2.50;;
177;SDS011;77;48.792;9.032;2023-07-13T08:57:02;5.80;;;2.30;;
177;SDS011;77;48.792;9.032;2023-07-13T08:59:28;7.00;;;2.10;;
177;SDS011;77;48.792;9.032;2023-07-13T09:02:00;5.20;;;2.20;;
177;SDS011;77;48.792;9.032;2023-07-13T09:04:27;10.70;;;2.50;;
177;SDS011;77;48.792;9.032;2023-07-13T09:06:57;7.30;;;2.30;;
177;SDS011;77;48.792;9.032;2023-07-13T09:09:24;5.40;;;2.37;;
177;SDS011;77;48.792;9.032;2023-07-13T09:11:56;8.80;;;2.90;;
177;SDS011;77;48.792;9.032;2023-07-13T09:14:27;7.60;;;2.80;;
177;SDS011;77;48.792;9.032;2023-07-13T09:16:58;5.47;;;2.57;;
177;SDS011;77;48.792;9.032;2023-07-13T09:19:28;8.80;;;2.70;;
177;SDS011;77;48.792;9.032;2023-07-13T09:21:55;6.90;;;2.50;;
177;SDS011;77;48.792;9.032;2023-07-13T09:24:28;5.53;;;2.30;;
177;SDS011;77;48.792;9.032;2023-07-13T09:26:54;7.20;;;2.63;;
177;SDS011;77;48.792;9.032;2023-07-13T09:29:22;8.77;;;2.70;;
177;SDS011;77;48.792;9.032;2023-07-13T09:31:52;8.80;;;2.80;;
177;SDS011;77;48.792;9.032;2023-07-13T09:34:19;5.50;;;2.50;;
177;SDS011;77;48.792;9.032;2023-07-13T09:36:45;5.67;;;2.40;;
177;SDS011;77;48.792;9.032;2023-07-13T09:39:12;5.40;;;2.37;;
177;SDS011;77;48.792;9.032;2023-07-13T09:41:40;9.23;;;2.60;;
177;SDS011;77;48.792;9.032;2023-07-13T09:44:07;7.73;;;2.60;;
177;SDS011;77;48.792;9.032;2023-07-13T09:46:32;13.10;;;2.77;;
177;SDS011;77;48.792;9.032;2023-07-13T09:48:57;8.80;;;2.57;;
177;SDS011;77;48.792;9.032;2023-07-13T09:51:24;7.60;;;2.63;;
177;SDS011;77;48.792;9.032;2023-07-13T09:53:49;5.90;;;2.37;;
177;SDS011;77;48.792;9.032;2023-07-13T09:56:21;5.60;;;2.37;;
177;SDS011;77;48.792;9.032;2023-07-13T09:58:46;7.80;;;2.80;;
177;SDS011;77;48.792;9.032;2023-07-13T10:01:12;9.47;;;2.40;;
177;SDS011;77;48.792;9.032;2023-07-13T10:03:37;6.17;;;2.30;;
177;SDS011;77;48.792;9.032;2023-07-13T10:06:09;7.90;;;2.40;;
177;SDS011;77;48.792;9.032;2023-07-13T10:08:37;6.80;;;2.50;;
177;SDS011;77;48.792;9.032;2023-07-13T10:11:08;5.40;;;2.50;;
177;SDS011;77;48.792;9.032;2023-07-13T10:13:34;6.53;;;2.57;;
177;SDS011;77;48.792;9.032;2023-07-13T10:16:00;6.03;;;2.40;;
177;SDS011;77;48.792;9.032;2023-07-13T10:18:26;6.13;;;2.30;;
177;SDS011;77;48.792;9.032;2023-07-13T10:20:53;5.90;;;2.60;;
177;SDS011;77;48.792;9.032;2023-07-13T10:23:20;5.63;;;2.40;;
177;SDS011;77;48.792;9.032;2023-07-13T10:25:47;7.80;;;2.60;;
177;SDS011;77;48.792;9.032;2023-07-13T10:28:17;5.70;;;2.30;;
177;SDS011;77;48.792;9.032;2023-07-13T10:30:45;4.83;;;2.47;;
177;SDS011;77;48.792;9.032;2023-07-13T10:33:11;6.33;;;2.53;;
177;SDS011;77;48.792;9.032;2023-07-13T10:35:37;6.53;;;2.43;;
177;SDS011;77;48.792;9.032;2023-07-13T10:38:04;6.30;;;2.70;;
177;SDS011;77;48.792;9.032;2023-07-13T10:40:31;12.07;;;2.70;;
177;SDS011;77;48.792;9.032;2023-07-13T10:43:00;7.50;;;2.30;;
177;SDS011;77;48.792;9.032;2023-07-13T10:45:27;6.80;;;2.80;;
177;SDS011;77;48.792;9.032;2023-07-13T10:47:53;6.50;;;2.57;;
177;SDS011;77;48.792;9.032;2023-07-13T10:50:20;7.40;;;2.53;;
177;SDS011;77;48.792;9.032;2023-07-13T10:52:46;5.20;;;2.40;;
177;SDS011;77;48.792;9.032;2023-07-13T10:55:31;4.77;;;2.40;;
177;SDS011;77;48.792;9.032;2023-07-13T10:58:00;7.10;;;2.90;;
177;SDS011;77;48.792;9.032;2023-07-13T11:00:26;4.97;;;2.50;;
177;SDS011;77;48.792;9.032;2023-07-13T11:02:57;9.13;;;2.67;;
177;SDS011;77;48.792;9.032;2023-07-13T11:05:26;7.33;;;2.60;;
177;SDS011;77;48.792;9.032;2023-07-13T11:07:52;5.17;;;2.57;;
177;SDS011;77;48.792;9.032;2023-07-13T11:12:58;7.73;;;2.50;;
177;SDS011;77;48.792;9.032;2023-07-13T11:15:30;8.93;;;2.50;;
177;SDS011;77;48.792;9.032;2023-07-13T11:17:55;6.93;;;2.60;;
177;SDS011;77;48.792;9.032;2023-07-13T11:20:22;10.53;;;2.53;;
177;SDS011;77;48.792;9.032;2023-07-13T11:22:48;6.40;;;2.60;;
177;SDS011;77;48.792;9.032;2023-07-13T11:25:21;13.23;;;2.60;;
177;SDS011;77;48.792;9.032;2023-07-13T11:27:50;7.10;;;2.70;;
177;SDS011;77;48.792;9.032;2023-07-13T11:30:23;7.40;;;2.60;;
177;SDS011;77;48.792;9.032;2023-07-13T11:33:03;4.87;;;2.60;;
177;SDS011;77;48.792;9.032;2023-07-13T11:35:28;11.57;;;2.70;;
177;SDS011;77;48.792;9.032;2023-07-13T11:37:53;8.10;;;2.60;;
177;SDS011;77;48.792;9.032;2023-07-13T11:40:19;6.63;;;2.60;;
177;SDS011;77;48.792;9.032;2023-07-13T11:42:47;6.57;;;2.80;;
177;SDS011;77;48.792;9.032;2023-07-13T11:45:18;5.83;;;2.60;;
177;SDS011;77;48.792;9.032;2023-07-13T11:47:44;9.63;;;2.57;;
177;SDS011;77;48.792;9.032;2023-07-13T11:50:18;8.33;;;2.50;;
177;SDS011;77;48.792;9.032;2023-07-13T11:52:43;6.73;;;2.60;;
177;SDS011;77;48.792;9.032;2023-07-13T11:55:13;9.03;;;2.50;;
177;SDS011;77;48.792;9.032;2023-07-13T11:57:39;5.87;;;2.60;;
177;SDS011;77;48.792;9.032;2023-07-13T12:00:11;7.43;;;2.50;;
177;SDS011;77;48.792;9.032;2023-07-13T12:02:38;5.83;;;2.53;;
177;SDS011;77;48.792;9.032;2023-07-13T12:05:04;5.87;;;2.60;;
177;SDS011;77;48.792;9.032;2023-07-13T12:07:31;7.97;;;2.53;;
177;SDS011;77;48.792;9.032;2023-07-13T12:10:00;8.13;;;3.07;;
177;SDS011;77;48.792;9.032;2023-07-13T12:12:28;5.23;;;2.50;;
177;SDS011;77;48.792;9.032;2023-07-13T12:14:53;5.93;;;2.90;;
177;SDS011;77;48.792;9.032;2023-07-13T12:17:19;5.60;;;2.40;;
177;SDS011;77;48.792;9.032;2023-07-13T12:19:44;7.27;;;2.80;;
177;SDS011;77;48.792;9.032;2023-07-13T12:22:10;8.43;;;3.10;;
177;SDS011;77;48.792;9.032;2023-07-13T12:24:38;5.07;;;2.43;;
177;SDS011;77;48.792;9.032;2023-07-13T12:27:05;8.97;;;2.60;;
177;SDS011;77;48.792;9.032;2023-07-13T12:29:30;7.60;;;3.17;;
177;SDS011;77;48.792;9.032;2023-07-13T12:31:56;5.27;;;2.70;;
177;SDS011;77;48.792;9.032;2023-07-13T12:34:22;7.90;;;2.60;;
177;SDS011;77;48.792;9.032;2023-07-13T12:36:48;5.40;;;2.53;;
177;SDS011;77;48.792;9.032;2023-07-13T12:39:15;7.57;;;3.00;;
177;SDS011;77;48.792;9.032;2023-07-13T12:41:42;4.73;;;2.40;;
177;SDS011;77;48.792;9.032;2023-07-13T12:44:09;11.70;;;3.20;;
177;SDS011;77;48.792;9.032;2023-07-13T12:46:35;6.00;;;2.73;;
177;SDS011;77;48.792;9.032;2023-07-13T12:49:04;8.40;;;2.80;;
177;SDS011;77;48.792;9.032;2023-07-13T12:51:30;7.03;;;2.40;;
177;SDS011;77;48.792;9.032;2023-07-13T12:53:57;6.37;;;2.80;;
177;SDS011;77;48.792;9.032;2023-07-13T12:56:23;6.50;;;2.50;;
177;SDS011;77;48.792;9.032;2023-07-13T12:58:53;4.80;;;2.60;;
177;SDS011;77;48.792;9.032;2023-07-13T13:01:19;5.13;;;2.53;;
177;SDS011;77;48.792;9.032;2023-07-13T13:03:45;7.83;;;2.90;;
177;SDS011;77;48.792;9.032;2023-07-13T13:06:20;5.70;;;2.67;;
177;SDS011;77;48.792;9.032;2023-07-13T13:08:46;8.93;;;2.77;;
177;SDS011;77;48.792;9.032;2023-07-13T13:11:11;6.37;;;2.80;;
177;SDS011;77;48.792;9.032;2023-07-13T13:13:36;5.70;;;2.57;;
177;SDS011;77;48.792;9.032;2023-07-13T13:16:04;6.83;;;3.00;;
177;SDS011;77;48.792;9.032;2023-07-13T13:18:33;5.80;;;2.90;;
177;SDS011;77;48.792;9.032;2023-07-13T13:20:58;7.17;;;2.60;;
177;SDS011;77;48.792;9.032;2023-07-13T13:23:23;6.27;;;2.60;;
177;SDS011;77;48.792;9.032;2023-07-13T13:25:49;10.67;;;2.60;;
177;SDS011;77;48.792;9.032;2023-07-13T13:28:15;6.20;;;2.70;;
177;SDS011;77;48.792;9.032;2023-07-13T13:30:40;5.87;;;2.70;;
177;SDS011;77;48.792;9.032;2023-07-13T13:33:08;4.80;;;2.63;;
177;SDS011;77;48.792;9.032;2023-07-13T13:35:35;5.90;;;2.70;;
177;SDS011;77;48.792;9.032;2023-07-13T13:38:00;5.67;;;2.43;;
177;SDS011;77;48.792;9.032;2023-07-13T13:40:25;5.05;;;2.53;;
177;SDS011;77;48.792;9.032;2023-07-13T13:42:50;6.60;;;2.50;;
177;SDS011;77;48.792;9.032;2023-07-13T13:45:15;7.93;;;2.90;;
177;SDS011;77;48.792;9.032;2023-07-13T13:47:40;6.60;;;2.60;;
177;SDS011;77;48.792;9.032;2023-07-13T13:50:14;9.50;;;2.93;;
177;SDS011;77;48.792;9.032;2023-07-13T13:52:39;6.40;;;2.70;;
177;SDS011;77;48.792;9.032;2023-07-13T13:55:05;6.20;;;2.63;;
177;SDS011;77;48.792;9.032;2023-07-13T13:57:36;5.20;;;2.50;;
177;SDS011;77;48.792;9.032;2023-07-13T14:00:01;7.10;;;2.50;;
177;SDS011;77;48.792;9.032;2023-07-13T14:02:27;4.73;;;2.60;;
177;SDS011;77;48.792;9.032;2023-07-13T14:04:54;7.90;;;2.50;;
177;SDS011;77;48.792;9.032;2023-07-13T14:07:21;6.40;;;2.60;;
177;SDS011;77;48.792;9.032;2023-07-13T14:09:46;5.33;;;2.43;;
177;SDS011;77;48.792;9.032;2023-07-13T14:12:11;5.95;;;2.55;;
177;SDS011;77;48.792;9.032;2023-07-13T14:14:36;8.53;;;2.70;;
177;SDS011;77;48.792;9.032;2023-07-13T14:17:01;5.23;;;2.30;;
177;SDS011;77;48.792;9.032;2023-07-13T14:19:27;6.20;;;2.50;;
177;SDS011;77;48.792;9.032;2023-07-13T14:21:52;10.20;;;2.73;;
177;SDS011;77;48.792;9.032;2023-07-13T14:24:18;6.33;;;2.77;;
177;SDS011;77;48.792;9.032;2023-07-13T14:26:43;6.83;;;3.03;;
177;SDS011;77;48.792;9.032;2023-07-13T14:29:11;6.40;;;2.60;;
177;SDS011;77;48.792;9.032;2023-07-13T14:31:37;6.60;;;2.63;;
177;SDS011;77;48.792;9.032;2023-07-13T14:34:02;6.77;;;2.40;;
177;SDS011;77;48.792;9.032;2023-07-13T14:36:28;5.13;;;2.50;;
177;SDS011;77;48.792;9.032;2023-07-13T14:38:53;5.47;;;2.70;;
177;SDS011;77;48.792;9.032;2023-07-13T14:41:20;11.40;;;2.90;;
177;SDS011;77;48.792;9.032;2023-07-13T14:43:45;7.10;;;2.70;;
177;SDS011;77;48.792;9.032;2023-07-13T14:46:11;7.67;;;2.50;;
177;SDS011;77;48.792;9.032;2023-07-13T14:48:43;9.13;;;3.03;;
177;SDS011;77;48.792;9.032;2023-07-13T14:51:08;5.73;;;2.70;;
177;SDS011;77;48.792;9.032;2023-07-13T14:53:33;5.30;;;2.60;;
177;SDS011;77;48.792;9.032;2023-07-13T14:55:58;6.50;;;2.80;;
177;SDS011;77;48.792;9.032;2023-07-13T14:58:25;5.43;;;2.53;;
177;SDS011;77;48.792;9.032;2023-07-13T15:00:50;5.47;;;2.70;;
177;SDS011;77;48.792;9.032;2023-07-13T15:03:17;4.50;;;2.30;;
177;SDS011;77;48.792;9.032;2023-07-13T15:05:43;6.37;;;2.60;;
177;SDS011;77;48.792;9.032;2023-07-13T15:08:08;7.40;;;3.17;;
177;SDS011;77;48.792;9.032;2023-07-13T15:10:34;6.00;;;2.37;;
177;SDS011;77;48.792;9.032;2023-07-13T15:12:59;5.67;;;2.60;;
177;SDS011;77;48.792;9.032;2023-07-13T15:15:26;6.23;;;2.70;;
177;SDS011;77;48.792;9.032;2023-07-13T15:17:51;4.73;;;2.50;;
177;SDS011;77;48.792;9.032;2023-07-13T15:20:18;4.77;;;2.73;;
177;SDS011;77;48.792;9.032;2023-07-13T15:22:44;5.10;;;2.60;;
177;SDS011;77;48.792;9.032;2023-07-13T15:25:11;8.90;;;2.73;;
177;SDS011;77;48.792;9.032;2023-07-13T15:27:39;4.40;;;2.50;;
177;SDS011;77;48.792;9.032;2023-07-13T15:30:04;6.93;;;2.60;;
177;SDS011;77;48.792;9.032;2023-07-13T15:32:31;5.10;;;2.73;;
177;SDS011;77;48.792;9.032;2023-07-13T15:34:56;5.77;;;2.77;;
177;SDS011;77;48.792;9.032;2023-07-13T15:37:21;4.55;;;2.42;;
177;SDS011;77;48.792;9.032;2023-07-13T15:39:46;8.60;;;2.73;;
177;SDS011;77;48.792;9.032;2023-07-13T15:42:13;6.37;;;2.60;;
177;SDS011;77;48.792;9.032;2023-07-13T15:44:38;4.57;;;2.60;;
177;SDS011;77;48.792;9.032;2023-07-13T15:47:04;5.50;;;2.50;;
177;SDS011;77;48.792;9.032;2023-07-13T15:49:30;5.87;;;2.50;;
177;SDS011;77;48.792;9.032;2023-07-13T15:51:55;6.00;;;2.60;;
177;SDS011;77;48.792;9.032;2023-07-13T15:54:21;6.13;;;2.50;;